createdAt,value
2023-05-01T00:00:05.754Z,36.90
2023-05-01T00:02:32.605Z,37.57
2023-05-01T00:04:59.548Z,32.20
2023-05-01T00:07:29.325Z,35.50
2023-05-01T00:09:56.240Z,33.93
2023-05-01T00:12:23.488Z,37.60
2023-05-01T00:14:50.559Z,34.47
2023-05-01T00:17:17.464Z,35.97
2023-05-01T00:19:44.210Z,32.87
2023-05-01T00:22:11.071Z,40.97
2023-05-01T00:24:37.770Z,39.93
2023-05-01T00:27:04.531Z,33.37
2023-05-01T00:29:31.328Z,33.20
2023-05-01T00:31:58.101Z,36.70
2023-05-01T00:34:25.450Z,36.37
2023-05-01T00:36:52.360Z,41.17
2023-05-01T00:39:19.553Z,32.23
2023-05-01T00:41:46.468Z,34.33
2023-05-01T00:44:13.198Z,31.83
2023-05-01T00:46:39.967Z,33.37
2023-05-01T00:49:06.731Z,33.37
2023-05-01T00:51:34.105Z,38.33
2023-05-01T00:54:01.521Z,37.33
2023-05-01T00:56:28.712Z,33.60
2023-05-01T00:58:56.614Z,38.43
2023-05-01T01:01:24.034Z,33.93
2023-05-01T01:03:51.830Z,35.23
2023-05-01T01:06:40.269Z,39.30
2023-05-01T01:09:26.233Z,37.40
2023-05-01T01:12:17.213Z,36.20
2023-05-01T01:15:11.699Z,37.20
2023-05-01T01:18:08.062Z,37.33
2023-05-01T01:20:39.257Z,50.70
2023-05-01T01:23:30.508Z,40.17
2023-05-01T01:26:19.368Z,40.87
2023-05-01T01:29:21.441Z,39.90
2023-05-01T01:31:50.901Z,38.80
2023-05-01T01:34:55.975Z,35.33
2023-05-01T01:37:29.573Z,36.80
2023-05-01T01:40:18.452Z,32.97
2023-05-01T01:43:02.477Z,36.30
2023-05-01T01:45:36.267Z,44.07
2023-05-01T01:48:04.525Z,32.30
2023-05-01T01:50:33.760Z,35.00
2023-05-01T01:53:04.410Z,41.93
2023-05-01T01:55:35.226Z,37.00
2023-05-01T01:58:03.703Z,36.70
2023-05-01T02:00:31.822Z,33.67
2023-05-01T02:03:01.263Z,40.13
2023-05-01T02:05:30.069Z,39.23
2023-05-01T02:07:57.699Z,40.73
2023-05-01T02:10:25.731Z,36.43
2023-05-01T02:12:54.891Z,35.40
2023-05-01T02:15:22.437Z,35.57
2023-05-01T02:17:51.767Z,35.30
2023-05-01T02:20:19.433Z,36.57
2023-05-01T02:22:47.404Z,38.93
2023-05-01T02:25:16.630Z,40.87
2023-05-01T02:28:21.094Z,37.60
2023-05-01T02:30:47.839Z,39.80
2023-05-01T02:33:14.778Z,42.10
2023-05-01T02:35:47.169Z,37.63
2023-05-01T02:38:15.164Z,35.43
2023-05-01T02:40:46.973Z,30.53
2023-05-01T02:43:18.327Z,45.80
2023-05-01T02:45:45.845Z,42.30
2023-05-01T02:48:17.465Z,43.67
2023-05-01T02:53:23.058Z,34.80
2023-05-01T02:55:53.583Z,37.30
2023-05-01T02:58:20.618Z,36.20
2023-05-01T03:00:49.714Z,34.40
2023-05-01T03:03:17.321Z,41.00
2023-05-01T03:05:44.245Z,38.53
2023-05-01T03:08:11.643Z,31.80
2023-05-01T03:10:44.302Z,35.27
2023-05-01T03:13:11.920Z,36.63
2023-05-01T03:15:39.473Z,29.83
2023-05-01T03:18:07.002Z,31.67
2023-05-01T03:20:34.273Z,31.80
2023-05-01T03:23:01.542Z,31.07
2023-05-01T03:25:28.277Z,29.70
2023-05-01T03:27:55.341Z,29.50
2023-05-01T03:30:22.360Z,33.93
2023-05-01T03:32:49.172Z,33.37
2023-05-01T03:35:16.213Z,28.63
2023-05-01T03:37:43.025Z,30.27
2023-05-01T03:40:10.625Z,32.30
2023-05-01T03:42:37.333Z,46.87
2023-05-01T03:45:04.347Z,32.30
2023-05-01T03:47:31.270Z,28.57
2023-05-01T03:49:58.318Z,25.07
2023-05-01T03:52:25.189Z,31.20
2023-05-01T03:54:52.019Z,29.93
2023-05-01T03:57:20.734Z,34.40
2023-05-01T03:59:47.560Z,31.03
2023-05-01T04:02:14.328Z,26.73
2023-05-01T04:04:41.128Z,37.97
2023-05-01T04:07:08.020Z,30.70
2023-05-01T04:09:34.833Z,31.70
2023-05-01T04:12:02.325Z,34.97
2023-05-01T04:14:29.357Z,25.13
2023-05-01T04:16:56.610Z,25.87
2023-05-01T04:19:23.493Z,28.60
2023-05-01T04:21:50.389Z,35.83
2023-05-01T04:24:17.114Z,27.53
2023-05-01T04:26:43.855Z,26.80
2023-05-01T04:29:10.569Z,36.20
2023-05-01T04:31:37.559Z,30.60
2023-05-01T04:34:04.353Z,30.60
2023-05-01T04:36:32.915Z,26.60
2023-05-01T04:38:59.736Z,29.83
2023-05-01T04:41:26.719Z,26.33
2023-05-01T04:43:53.469Z,29.53
2023-05-01T04:46:20.250Z,25.87
2023-05-01T04:48:46.972Z,25.57
2023-05-01T04:51:13.757Z,30.57
2023-05-01T04:53:40.500Z,26.47
2023-05-01T04:56:07.324Z,30.63
2023-05-01T04:58:34.025Z,27.07
2023-05-01T05:01:00.801Z,30.87
2023-05-01T05:03:27.636Z,25.67
2023-05-01T05:05:54.456Z,32.43
2023-05-01T05:08:21.389Z,38.17
2023-05-01T05:10:48.069Z,28.60
2023-05-01T05:13:14.832Z,21.47
2023-05-01T05:15:41.549Z,23.63
2023-05-01T05:18:08.365Z,28.23
2023-05-01T05:20:39.665Z,27.67
2023-05-01T05:23:08.259Z,28.53
2023-05-01T05:25:35.341Z,24.67
2023-05-01T05:28:02.192Z,22.87
2023-05-01T05:30:28.925Z,24.37
2023-05-01T05:32:55.780Z,24.50
2023-05-01T05:35:22.585Z,26.30
2023-05-01T05:37:49.560Z,25.53
2023-05-01T05:40:16.480Z,32.03
2023-05-01T05:42:43.235Z,24.73
2023-05-01T05:45:10.298Z,23.70
2023-05-01T05:47:37.332Z,25.17
2023-05-01T05:50:04.454Z,23.30
2023-05-01T05:52:31.157Z,24.67
2023-05-01T05:54:57.875Z,23.53
2023-05-01T05:57:24.805Z,26.23
2023-05-01T05:59:51.615Z,21.57
2023-05-01T06:02:18.987Z,25.90
2023-05-01T06:04:46.132Z,26.30
2023-05-01T06:07:12.915Z,30.83
2023-05-01T06:09:40.422Z,23.23
2023-05-01T06:12:07.314Z,26.40
2023-05-01T06:14:34.053Z,23.73
2023-05-01T06:17:01.666Z,22.90
2023-05-01T06:19:28.488Z,25.77
2023-05-01T06:21:55.319Z,24.50
2023-05-01T06:24:22.100Z,27.77
2023-05-01T06:26:48.809Z,29.93
2023-05-01T06:29:16.468Z,23.07
2023-05-01T06:31:43.282Z,22.97
2023-05-01T06:34:10.248Z,23.73
2023-05-01T06:36:37.159Z,24.70
2023-05-01T06:39:04.365Z,23.67
2023-05-01T06:41:32.584Z,29.30
2023-05-01T06:43:59.465Z,23.70
2023-05-01T06:46:26.272Z,28.13
2023-05-01T06:48:53.026Z,29.83
2023-05-01T06:51:19.867Z,22.03
2023-05-01T06:53:46.555Z,26.53
2023-05-01T06:56:13.305Z,30.40
2023-05-01T06:58:40.057Z,26.63
2023-05-01T07:01:07.143Z,21.97
2023-05-01T07:03:33.983Z,21.27
2023-05-01T07:06:00.807Z,27.20
2023-05-01T07:08:28.199Z,26.67
2023-05-01T07:10:55.083Z,26.63
2023-05-01T07:13:21.914Z,25.57
2023-05-01T07:15:49.289Z,29.73
2023-05-01T07:18:17.561Z,25.77
2023-05-01T07:20:45.167Z,24.50
2023-05-01T07:23:11.971Z,32.97
2023-05-01T07:25:41.934Z,25.50
2023-05-01T07:28:08.820Z,26.13
2023-05-01T07:30:38.655Z,25.87
2023-05-01T07:33:08.233Z,23.77
2023-05-01T07:35:35.008Z,25.23
2023-05-01T07:38:01.770Z,28.00
2023-05-01T07:40:28.469Z,26.70
2023-05-01T07:42:55.189Z,27.27
2023-05-01T07:45:21.934Z,25.13
2023-05-01T07:47:49.594Z,28.60
2023-05-01T07:50:17.131Z,22.93
2023-05-01T07:52:44.035Z,23.70
2023-05-01T07:55:11.109Z,25.63
2023-05-01T07:57:38.649Z,27.87
2023-05-01T08:00:06.101Z,28.10
2023-05-01T08:02:32.936Z,27.43
2023-05-01T08:04:59.861Z,29.93
2023-05-01T08:07:26.776Z,29.60
2023-05-01T08:09:53.775Z,31.80
2023-05-01T08:12:20.578Z,24.20
2023-05-01T08:14:47.272Z,21.13
2023-05-01T08:17:14.267Z,23.53
2023-05-01T08:19:40.963Z,25.07
2023-05-01T08:22:07.716Z,22.37
2023-05-01T08:24:34.462Z,30.40
2023-05-01T08:27:01.266Z,26.67
2023-05-01T08:29:27.997Z,23.53
2023-05-01T08:31:56.928Z,24.97
2023-05-01T08:34:24.146Z,22.27
2023-05-01T08:36:51.163Z,23.33
2023-05-01T08:39:17.847Z,29.17
2023-05-01T08:41:48.734Z,26.60
2023-05-01T08:44:19.147Z,23.27
2023-05-01T08:46:54.982Z,24.00
2023-05-01T08:49:22.783Z,24.63
2023-05-01T08:51:52.940Z,22.30
2023-05-01T08:54:20.813Z,25.80
2023-05-01T08:56:47.813Z,26.37
2023-05-01T08:59:15.156Z,25.67
2023-05-01T09:01:43.767Z,26.80
2023-05-01T09:04:11.902Z,23.17
2023-05-01T09:06:38.942Z,22.30
2023-05-01T09:09:06.420Z,24.00
2023-05-01T09:11:33.430Z,23.50
2023-05-01T09:14:01.723Z,27.40
2023-05-01T09:16:29.798Z,29.40
2023-05-01T09:18:58.823Z,27.03
2023-05-01T09:21:27.479Z,27.87
2023-05-01T09:23:54.208Z,27.83
2023-05-01T09:26:21.939Z,28.50
2023-05-01T09:28:48.936Z,25.53
2023-05-01T09:31:20.981Z,24.93
2023-05-01T09:33:54.814Z,27.90
2023-05-01T09:36:22.873Z,24.73
2023-05-01T09:38:49.728Z,26.93
2023-05-01T09:41:17.202Z,33.70
2023-05-01T09:43:56.160Z,26.87
2023-05-01T09:46:24.541Z,24.87
2023-05-01T09:48:58.659Z,25.73
2023-05-01T09:51:30.804Z,26.47
2023-05-01T09:53:58.597Z,24.17
2023-05-01T09:56:30.464Z,26.00
2023-05-01T09:59:13.963Z,28.67
2023-05-01T10:01:43.509Z,27.20
2023-05-01T10:04:10.556Z,26.90
2023-05-01T10:06:38.358Z,26.47
2023-05-01T10:09:07.809Z,27.23
2023-05-01T10:11:55.495Z,25.03
2023-05-01T10:14:24.027Z,28.30
2023-05-01T10:16:52.912Z,29.30
2023-05-01T10:19:20.991Z,28.20
2023-05-01T10:21:47.756Z,27.07
2023-05-01T10:24:16.845Z,34.40
2023-05-01T10:26:44.128Z,25.13
2023-05-01T10:29:12.097Z,25.20
2023-05-01T10:31:40.660Z,25.20
2023-05-01T10:34:09.244Z,26.77
2023-05-01T10:36:45.999Z,23.67
2023-05-01T10:39:31.346Z,25.67
2023-05-01T10:41:58.043Z,29.53
2023-05-01T10:44:26.902Z,27.90
2023-05-01T10:46:54.595Z,28.33
2023-05-01T10:49:21.615Z,29.83
2023-05-01T10:52:03.987Z,26.10
2023-05-01T10:54:32.413Z,26.47
2023-05-01T10:57:03.176Z,27.17
2023-05-01T11:00:04.231Z,26.97
2023-05-01T11:02:31.145Z,29.60
2023-05-01T11:04:58.072Z,29.93
2023-05-01T11:07:26.053Z,25.53
2023-05-01T11:09:55.316Z,24.77
2023-05-01T11:12:41.399Z,27.40
2023-05-01T11:15:08.750Z,26.73
2023-05-01T11:17:42.211Z,28.00
2023-05-01T11:20:14.091Z,29.23
2023-05-01T11:22:47.224Z,27.80
2023-05-01T11:25:22.368Z,27.00
2023-05-01T11:27:50.726Z,25.83
2023-05-01T11:30:18.107Z,26.17
2023-05-01T11:32:46.942Z,27.97
2023-05-01T11:35:19.794Z,28.57
2023-05-01T11:37:47.550Z,27.07
2023-05-01T11:40:22.538Z,31.13
2023-05-01T11:42:50.455Z,26.80
2023-05-01T11:45:18.587Z,27.60
2023-05-01T11:47:45.464Z,25.20
2023-05-01T11:50:12.719Z,27.27
2023-05-01T11:52:43.963Z,27.20
2023-05-01T11:55:11.638Z,31.20
2023-05-01T11:58:05.152Z,28.20
2023-05-01T12:00:38.031Z,30.50
2023-05-01T12:03:13.368Z,36.53
2023-05-01T12:05:45.111Z,27.30
2023-05-01T12:08:23.229Z,27.20
2023-05-01T12:10:59.215Z,27.97
2023-05-01T12:13:29.190Z,26.50
2023-05-01T12:15:56.833Z,29.53
2023-05-01T12:18:23.937Z,30.70
2023-05-01T12:20:52.975Z,29.70
2023-05-01T12:23:30.225Z,31.83
2023-05-01T12:25:57.442Z,31.50
2023-05-01T12:28:24.838Z,29.40
2023-05-01T12:30:51.672Z,30.47
2023-05-01T12:33:20.155Z,29.43
2023-05-01T12:35:48.993Z,30.33
2023-05-01T12:38:17.882Z,28.03
2023-05-01T12:40:59.456Z,26.00
2023-05-01T12:43:38.010Z,32.80
2023-05-01T12:46:06.024Z,29.07
2023-05-01T12:48:35.933Z,26.20
2023-05-01T12:51:02.739Z,29.67
2023-05-01T12:53:30.335Z,28.20
2023-05-01T12:55:58.649Z,27.47
2023-05-01T12:58:38.591Z,26.53
2023-05-01T13:01:06.279Z,28.53
2023-05-01T13:03:37.163Z,27.23
2023-05-01T13:06:07.397Z,27.00
2023-05-01T13:08:40.013Z,30.77
2023-05-01T13:11:11.072Z,30.90
2023-05-01T13:13:37.978Z,34.60
2023-05-01T13:16:10.336Z,30.30
2023-05-01T13:18:52.014Z,35.13
2023-05-01T13:21:25.459Z,29.33
2023-05-01T13:23:59.949Z,33.10
2023-05-01T13:26:33.557Z,29.43
2023-05-01T13:29:01.702Z,30.27
2023-05-01T13:31:29.117Z,31.83
2023-05-01T13:33:58.268Z,32.97
2023-05-01T13:36:27.347Z,30.80
2023-05-01T13:38:56.656Z,32.13
2023-05-01T13:41:26.079Z,32.80
2023-05-01T13:43:53.996Z,31.07
2023-05-01T13:46:22.846Z,28.77
2023-05-01T13:48:50.108Z,29.20
2023-05-01T13:51:25.352Z,29.27
2023-05-01T13:53:53.647Z,31.63
2023-05-01T13:56:21.670Z,27.77
2023-05-01T13:58:50.060Z,29.17
2023-05-01T14:01:19.220Z,29.60
2023-05-01T14:03:46.418Z,30.63
2023-05-01T14:06:18.455Z,37.40
2023-05-01T14:08:46.969Z,29.60
2023-05-01T14:11:14.337Z,29.23
2023-05-01T14:13:42.860Z,33.33
2023-05-01T14:16:11.692Z,30.93
2023-05-01T14:18:46.078Z,29.07
2023-05-01T14:21:15.196Z,30.60
2023-05-01T14:23:42.177Z,29.63
2023-05-01T14:26:11.180Z,34.00
2023-05-01T14:28:45.267Z,30.67
2023-05-01T14:31:22.597Z,30.87
2023-05-01T14:33:55.321Z,34.40
2023-05-01T14:36:22.491Z,30.80
2023-05-01T14:38:50.568Z,29.60
2023-05-01T14:41:21.011Z,30.00
2023-05-01T14:43:51.102Z,31.00
2023-05-01T14:46:32.585Z,32.80
2023-05-01T14:49:01.027Z,29.67
2023-05-01T14:51:28.878Z,31.00
2023-05-01T14:53:55.972Z,31.37
2023-05-01T14:56:23.094Z,30.47
2023-05-01T14:58:50.266Z,29.97
2023-05-01T15:01:18.231Z,32.43
2023-05-01T15:03:45.770Z,29.23
2023-05-01T15:06:12.841Z,30.30
2023-05-01T15:08:39.687Z,30.70
2023-05-01T15:11:06.569Z,30.20
2023-05-01T15:13:33.358Z,28.30
2023-05-01T15:16:00.517Z,32.93
2023-05-01T15:18:27.356Z,29.57
2023-05-01T15:20:54.165Z,36.90
2023-05-01T15:23:20.896Z,28.37
2023-05-01T15:25:50.462Z,30.37
2023-05-01T15:28:17.380Z,28.83
2023-05-01T15:30:45.943Z,32.20
2023-05-01T15:33:18.730Z,29.90
2023-05-01T15:35:47.273Z,34.40
2023-05-01T15:38:14.374Z,32.67
2023-05-01T15:40:43.489Z,28.47
2023-05-01T15:43:10.249Z,30.10
2023-05-01T15:45:42.563Z,31.90
2023-05-01T15:48:09.837Z,27.60
2023-05-01T15:50:36.702Z,32.67
2023-05-01T15:53:03.638Z,33.33
2023-05-01T15:55:30.683Z,34.30
2023-05-01T15:57:57.427Z,31.40
2023-05-01T16:00:24.851Z,31.37
2023-05-01T16:02:51.704Z,34.70
2023-05-01T16:05:21.381Z,30.50
2023-05-01T16:07:54.013Z,29.13
2023-05-01T16:10:21.013Z,30.93
2023-05-01T16:12:50.543Z,28.93
2023-05-01T16:15:17.388Z,29.73
2023-05-01T16:17:45.939Z,32.50
2023-05-01T16:20:14.239Z,32.60
2023-05-01T16:22:42.815Z,37.97
2023-05-01T16:25:10.626Z,29.43
2023-05-01T16:27:45.851Z,29.30
2023-05-01T16:30:16.864Z,32.63
2023-05-01T16:32:44.949Z,34.73
2023-05-01T16:35:17.371Z,31.60
2023-05-01T16:37:44.204Z,35.10
2023-05-01T16:40:16.720Z,27.70
2023-05-01T16:42:49.329Z,30.60
2023-05-01T16:45:16.170Z,30.43
2023-05-01T16:47:42.968Z,29.23
2023-05-01T16:50:10.184Z,30.97
2023-05-01T16:52:37.036Z,40.40
2023-05-01T16:55:03.924Z,28.70
2023-05-01T16:57:30.693Z,28.40
2023-05-01T16:59:57.553Z,29.80
2023-05-01T17:02:24.600Z,36.97
2023-05-01T17:04:51.771Z,31.03
2023-05-01T17:07:18.782Z,31.57
2023-05-01T17:09:45.531Z,30.93
2023-05-01T17:12:12.257Z,29.80
2023-05-01T17:14:39.003Z,27.00
2023-05-01T17:17:09.464Z,29.67
2023-05-01T17:19:38.898Z,37.03
2023-05-01T17:22:07.046Z,27.80
2023-05-01T17:24:35.230Z,30.17
2023-05-01T17:27:03.191Z,31.37
2023-05-01T17:29:30.188Z,28.10
2023-05-01T17:31:57.063Z,28.27
2023-05-01T17:34:23.870Z,30.03
2023-05-01T17:36:50.769Z,27.60
2023-05-01T17:39:17.567Z,34.10
2023-05-01T17:41:44.419Z,30.57
2023-05-01T17:44:11.307Z,34.33
2023-05-01T17:46:39.015Z,29.27
2023-05-01T17:49:06.191Z,32.90
2023-05-01T17:51:33.477Z,30.50
2023-05-01T17:54:01.596Z,30.10
2023-05-01T17:56:28.435Z,29.90
2023-05-01T17:58:55.287Z,29.83
2023-05-01T18:01:22.348Z,29.57
2023-05-01T18:03:49.344Z,32.77
2023-05-01T18:06:16.834Z,32.63
2023-05-01T18:08:43.641Z,34.63
2023-05-01T18:11:10.422Z,29.00
2023-05-01T18:13:42.397Z,29.57
2023-05-01T18:16:09.776Z,33.90
2023-05-01T18:18:36.530Z,34.17
2023-05-01T18:21:03.681Z,32.93
2023-05-01T18:23:30.410Z,29.30
2023-05-01T18:25:57.196Z,36.13
2023-05-01T18:28:24.078Z,31.77
2023-05-01T18:30:50.840Z,34.03
2023-05-01T18:33:18.087Z,29.53
2023-05-01T18:35:45.025Z,36.03
2023-05-01T18:38:12.215Z,27.90
2023-05-01T18:40:39.389Z,32.93
2023-05-01T18:43:06.183Z,32.20
2023-05-01T18:45:32.987Z,34.57
2023-05-01T18:48:00.580Z,34.40
2023-05-01T18:50:27.625Z,31.27
2023-05-01T18:52:54.326Z,26.77
2023-05-01T18:55:21.073Z,29.10
2023-05-01T18:57:48.493Z,34.60
2023-05-01T19:00:17.498Z,31.97
2023-05-01T19:02:51.448Z,31.30
2023-05-01T19:05:19.126Z,31.67
2023-05-01T19:07:46.455Z,31.50
2023-05-01T19:10:13.353Z,28.97
2023-05-01T19:12:41.190Z,32.53
2023-05-01T19:15:10.119Z,30.70
2023-05-01T19:17:37.319Z,31.30
2023-05-01T19:20:04.876Z,29.97
2023-05-01T19:22:31.636Z,33.20
2023-05-01T19:25:00.015Z,31.07
2023-05-01T19:27:27.021Z,33.10
2023-05-01T19:29:54.510Z,31.03
2023-05-01T19:32:21.537Z,31.47
2023-05-01T19:34:48.575Z,40.23
2023-05-01T19:37:15.402Z,32.33
2023-05-01T19:39:42.129Z,35.10
2023-05-01T19:42:08.992Z,34.03
2023-05-01T19:44:35.718Z,37.00
2023-05-01T19:47:02.572Z,31.13
2023-05-01T19:49:29.345Z,30.23
2023-05-01T19:51:57.609Z,46.83
2023-05-01T19:54:28.648Z,38.17
2023-05-01T19:56:56.142Z,35.77
2023-05-01T19:59:23.323Z,39.33
2023-05-01T20:01:50.302Z,35.10
2023-05-01T20:04:17.385Z,35.57
2023-05-01T20:06:44.240Z,37.57
2023-05-01T20:09:11.101Z,33.63
2023-05-01T20:11:37.861Z,33.63
2023-05-01T20:14:04.620Z,38.63
2023-05-01T20:16:31.587Z,35.90
2023-05-01T20:18:58.394Z,39.57
2023-05-01T20:21:25.671Z,36.60
2023-05-01T20:23:54.282Z,37.50
2023-05-01T20:26:21.395Z,30.30
2023-05-01T20:28:48.876Z,32.30
2023-05-01T20:31:15.812Z,32.13
2023-05-01T20:33:42.634Z,42.63
2023-05-01T20:36:09.630Z,36.03
2023-05-01T20:38:47.487Z,36.30
2023-05-01T20:41:15.006Z,33.20
2023-05-01T20:43:41.800Z,37.90
2023-05-01T20:46:08.775Z,34.10
2023-05-01T20:48:35.599Z,32.40
2023-05-01T20:51:02.465Z,32.80
2023-05-01T20:53:29.246Z,33.90
2023-05-01T20:55:56.029Z,43.60
2023-05-01T20:58:22.867Z,36.63
2023-05-01T21:00:49.680Z,37.00
2023-05-01T21:03:17.066Z,36.57
2023-05-01T21:08:18.251Z,36.63
2023-05-01T21:10:45.037Z,33.60
2023-05-01T21:13:13.868Z,37.30
2023-05-01T21:15:41.432Z,42.10
2023-05-01T21:18:12.173Z,39.70
2023-05-01T21:20:39.534Z,43.03
2023-05-01T21:23:06.531Z,40.53
2023-05-01T21:25:33.292Z,43.40
2023-05-01T21:28:05.099Z,34.20
2023-05-01T21:30:34.259Z,37.27
2023-05-01T21:33:03.200Z,34.63
2023-05-01T21:35:30.483Z,40.93
2023-05-01T21:37:58.544Z,36.70
2023-05-01T21:40:25.948Z,39.87
2023-05-01T21:42:56.327Z,35.57
2023-05-01T21:45:23.561Z,34.10
2023-05-01T21:47:51.500Z,35.60
2023-05-01T21:50:19.754Z,34.10
2023-05-01T21:52:48.869Z,32.23
2023-05-01T21:55:18.811Z,35.70
2023-05-01T21:57:45.780Z,34.47
2023-05-01T22:00:13.221Z,33.07
2023-05-01T22:02:44.972Z,40.77
2023-05-01T22:05:14.253Z,34.17
2023-05-01T22:07:42.869Z,38.20
2023-05-01T22:10:11.773Z,40.30
2023-05-01T22:12:39.767Z,37.70
2023-05-01T22:15:13.902Z,33.07
2023-05-01T22:17:40.830Z,35.50
2023-05-01T22:20:11.281Z,36.27
2023-05-01T22:22:39.325Z,37.67
2023-05-01T22:25:06.989Z,34.80
2023-05-01T22:27:34.612Z,36.27
2023-05-01T22:30:02.047Z,35.73
2023-05-01T22:32:29.237Z,35.10
2023-05-01T22:34:55.998Z,34.70
2023-05-01T22:37:22.944Z,37.70
2023-05-01T22:39:49.775Z,31.27
2023-05-01T22:42:16.513Z,32.87
2023-05-01T22:44:43.336Z,34.23
2023-05-01T22:47:10.279Z,34.30
2023-05-01T22:49:37.010Z,31.57
2023-05-01T22:52:03.981Z,31.63
2023-05-01T22:54:30.724Z,33.27
2023-05-01T22:56:57.443Z,30.70
2023-05-01T22:59:24.236Z,32.80
2023-05-01T23:01:51.044Z,30.20
2023-05-01T23:04:18.106Z,27.83
2023-05-01T23:06:45.023Z,28.40
2023-05-01T23:09:12.075Z,31.47
2023-05-01T23:11:40.744Z,28.83
2023-05-01T23:14:07.645Z,28.33
2023-05-01T23:16:43.769Z,28.30
2023-05-01T23:19:21.907Z,28.30
2023-05-01T23:22:03.956Z,31.70
2023-05-01T23:24:48.236Z,26.63
2023-05-01T23:27:16.866Z,29.20
2023-05-01T23:29:54.616Z,29.67
2023-05-01T23:32:30.002Z,26.73
2023-05-01T23:35:07.272Z,28.20
2023-05-01T23:37:33.984Z,25.87
2023-05-01T23:40:01.946Z,25.87
2023-05-01T23:42:28.924Z,26.37
2023-05-01T23:44:56.550Z,26.60
2023-05-01T23:47:23.373Z,25.73
2023-05-01T23:49:50.509Z,25.30
2023-05-01T23:52:17.379Z,27.07
2023-05-01T23:54:44.105Z,25.43
2023-05-01T23:57:10.820Z,29.10
2023-05-01T23:59:37.963Z,26.50
